sensor_id;sensor_type;location;lat;lon;timestamp;P1;durP1;ratioP1;P2;durP2;ratioP2
19183;SDS011;9724;51.194;6.856;2022-08-01T00:00:47;5.50;;;4.30;;
19183;SDS011;9724;51.194;6.856;2022-08-01T00:03:15;5.83;;;4.43;;
19183;SDS011;9724;51.194;6.856;2022-08-01T00:05:42;5.00;;;4.50;;
19183;SDS011;9724;51.194;6.856;2022-08-01T00:08:11;6.03;;;4.37;;
19183;SDS011;9724;51.194;6.856;2022-08-01T00:10:39;4.83;;;4.30;;
19183;SDS011;9724;51.194;6.856;2022-08-01T00:13:08;5.97;;;4.00;;
19183;SDS011;9724;51.194;6.856;2022-08-01T00:15:36;4.63;;;4.23;;
19183;SDS011;9724;51.194;6.856;2022-08-01T00:18:03;6.03;;;3.93;;
19183;SDS011;9724;51.194;6.856;2022-08-01T00:20:31;4.07;;;3.70;;
19183;SDS011;9724;51.194;6.856;2022-08-01T00:23:00;5.70;;;4.67;;
19183;SDS011;9724;51.194;6.856;2022-08-01T00:25:29;4.17;;;3.77;;
19183;SDS011;9724;51.194;6.856;2022-08-01T00:27:59;6.47;;;3.77;;
19183;SDS011;9724;51.194;6.856;2022-08-01T00:30:30;10.53;;;4.43;;
19183;SDS011;9724;51.194;6.856;2022-08-01T00:32:58;4.57;;;4.17;;
19183;SDS011;9724;51.194;6.856;2022-08-01T00:35:25;7.70;;;4.37;;
19183;SDS011;9724;51.194;6.856;2022-08-01T00:37:53;8.40;;;4.67;;
19183;SDS011;9724;51.194;6.856;2022-08-01T00:40:21;5.53;;;5.00;;
19183;SDS011;9724;51.194;6.856;2022-08-01T00:42:49;8.20;;;4.90;;
19183;SDS011;9724;51.194;6.856;2022-08-01T00:45:17;9.17;;;5.40;;
19183;SDS011;9724;51.194;6.856;2022-08-01T00:47:46;9.33;;;5.03;;
19183;SDS011;9724;51.194;6.856;2022-08-01T00:50:20;9.17;;;5.70;;
19183;SDS011;9724;51.194;6.856;2022-08-01T00:52:50;6.37;;;5.03;;
19183;SDS011;9724;51.194;6.856;2022-08-01T00:55:18;5.83;;;5.17;;
19183;SDS011;9724;51.194;6.856;2022-08-01T00:57:46;7.47;;;5.23;;
19183;SDS011;9724;51.194;6.856;2022-08-01T01:00:31;7.30;;;5.50;;
19183;SDS011;9724;51.194;6.856;2022-08-01T01:03:21;9.73;;;4.80;;
19183;SDS011;9724;51.194;6.856;2022-08-01T01:06:21;11.67;;;5.20;;
19183;SDS011;9724;51.194;6.856;2022-08-01T01:09:02;9.50;;;5.13;;
19183;SDS011;9724;51.194;6.856;2022-08-01T01:11:48;5.80;;;5.20;;
19183;SDS011;9724;51.194;6.856;2022-08-01T01:14:27;8.93;;;5.40;;
19183;SDS011;9724;51.194;6.856;2022-08-01T01:16:58;6.20;;;5.10;;
19183;SDS011;9724;51.194;6.856;2022-08-01T01:19:30;6.43;;;5.57;;
19183;SDS011;9724;51.194;6.856;2022-08-01T01:24:54;9.77;;;5.57;;
19183;SDS011;9724;51.194;6.856;2022-08-01T01:27:36;8.90;;;5.23;;
19183;SDS011;9724;51.194;6.856;2022-08-01T01:30:11;5.60;;;5.07;;
19183;SDS011;9724;51.194;6.856;2022-08-01T01:32:41;10.13;;;5.13;;
19183;SDS011;9724;51.194;6.856;2022-08-01T01:35:13;8.87;;;5.00;;
19183;SDS011;9724;51.194;6.856;2022-08-01T01:37:42;6.90;;;4.80;;
19183;SDS011;9724;51.194;6.856;2022-08-01T01:40:11;7.23;;;5.27;;
19183;SDS011;9724;51.194;6.856;2022-08-01T01:42:40;7.13;;;5.17;;
19183;SDS011;9724;51.194;6.856;2022-08-01T01:45:11;7.20;;;5.17;;
19183;SDS011;9724;51.194;6.856;2022-08-01T01:47:39;11.47;;;5.47;;
19183;SDS011;9724;51.194;6.856;2022-08-01T01:50:07;7.97;;;4.93;;
19183;SDS011;9724;51.194;6.856;2022-08-01T01:52:36;6.83;;;4.80;;
19183;SDS011;9724;51.194;6.856;2022-08-01T01:55:06;8.07;;;4.80;;
19183;SDS011;9724;51.194;6.856;2022-08-01T01:57:36;9.20;;;5.27;;
19183;SDS011;9724;51.194;6.856;2022-08-01T02:00:05;8.20;;;4.90;;
19183;SDS011;9724;51.194;6.856;2022-08-01T02:02:36;7.23;;;5.30;;
19183;SDS011;9724;51.194;6.856;2022-08-01T02:05:04;10.63;;;5.37;;
19183;SDS011;9724;51.194;6.856;2022-08-01T02:07:32;6.93;;;5.40;;
19183;SDS011;9724;51.194;6.856;2022-08-01T02:10:02;12.60;;;5.60;;
19183;SDS011;9724;51.194;6.856;2022-08-01T02:12:32;8.60;;;5.10;;
19183;SDS011;9724;51.194;6.856;2022-08-01T02:15:02;8.70;;;5.23;;
19183;SDS011;9724;51.194;6.856;2022-08-01T02:17:31;9.10;;;5.63;;
19183;SDS011;9724;51.194;6.856;2022-08-01T02:20:00;6.80;;;5.20;;
19183;SDS011;9724;51.194;6.856;2022-08-01T02:22:29;6.77;;;5.63;;
19183;SDS011;9724;51.194;6.856;2022-08-01T02:24:59;12.07;;;5.37;;
19183;SDS011;9724;51.194;6.856;2022-08-01T02:27:30;9.00;;;4.93;;
19183;SDS011;9724;51.194;6.856;2022-08-01T02:30:03;7.70;;;5.30;;
19183;SDS011;9724;51.194;6.856;2022-08-01T02:32:33;10.40;;;5.60;;
19183;SDS011;9724;51.194;6.856;2022-08-01T02:35:05;12.47;;;5.40;;
19183;SDS011;9724;51.194;6.856;2022-08-01T02:37:36;8.67;;;5.67;;
19183;SDS011;9724;51.194;6.856;2022-08-01T02:40:11;12.53;;;5.83;;
19183;SDS011;9724;51.194;6.856;2022-08-01T02:42:40;14.90;;;5.90;;
19183;SDS011;9724;51.194;6.856;2022-08-01T02:45:11;9.80;;;5.43;;
19183;SDS011;9724;51.194;6.856;2022-08-01T02:47:40;12.47;;;5.70;;
19183;SDS011;9724;51.194;6.856;2022-08-01T02:50:10;9.77;;;5.53;;
19183;SDS011;9724;51.194;6.856;2022-08-01T02:52:39;5.80;;;5.20;;
19183;SDS011;9724;51.194;6.856;2022-08-01T02:55:08;14.07;;;5.80;;
19183;SDS011;9724;51.194;6.856;2022-08-01T02:57:36;9.20;;;6.07;;
19183;SDS011;9724;51.194;6.856;2022-08-01T03:00:17;9.53;;;5.63;;
19183;SDS011;9724;51.194;6.856;2022-08-01T03:02:45;12.67;;;6.10;;
19183;SDS011;9724;51.194;6.856;2022-08-01T03:05:15;12.90;;;6.00;;
19183;SDS011;9724;51.194;6.856;2022-08-01T03:07:44;9.70;;;5.80;;
19183;SDS011;9724;51.194;6.856;2022-08-01T03:10:14;8.10;;;5.83;;
19183;SDS011;9724;51.194;6.856;2022-08-01T03:12:43;11.87;;;5.87;;
19183;SDS011;9724;51.194;6.856;2022-08-01T03:15:13;7.00;;;5.77;;
19183;SDS011;9724;51.194;6.856;2022-08-01T03:17:42;10.07;;;5.90;;
19183;SDS011;9724;51.194;6.856;2022-08-01T03:20:12;15.23;;;5.57;;
19183;SDS011;9724;51.194;6.856;2022-08-01T03:22:43;10.60;;;5.63;;
19183;SDS011;9724;51.194;6.856;2022-08-01T03:25:11;7.47;;;5.63;;
19183;SDS011;9724;51.194;6.856;2022-08-01T03:27:40;10.47;;;5.37;;
19183;SDS011;9724;51.194;6.856;2022-08-01T03:30:09;9.90;;;6.43;;
19183;SDS011;9724;51.194;6.856;2022-08-01T03:32:38;12.27;;;6.20;;
19183;SDS011;9724;51.194;6.856;2022-08-01T03:35:07;10.47;;;5.83;;
19183;SDS011;9724;51.194;6.856;2022-08-01T03:37:36;13.33;;;6.13;;
19183;SDS011;9724;51.194;6.856;2022-08-01T03:40:28;13.23;;;6.43;;
19183;SDS011;9724;51.194;6.856;2022-08-01T03:42:59;9.93;;;7.43;;
19183;SDS011;9724;51.194;6.856;2022-08-01T03:45:30;13.37;;;7.53;;
19183;SDS011;9724;51.194;6.856;2022-08-01T03:48:00;13.73;;;7.90;;
19183;SDS011;9724;51.194;6.856;2022-08-01T03:50:29;16.77;;;7.40;;
19183;SDS011;9724;51.194;6.856;2022-08-01T03:53:00;16.53;;;9.07;;
19183;SDS011;9724;51.194;6.856;2022-08-01T03:55:30;14.00;;;9.13;;
19183;SDS011;9724;51.194;6.856;2022-08-01T03:57:59;27.93;;;11.53;;
19183;SDS011;9724;51.194;6.856;2022-08-01T04:00:33;22.10;;;11.90;;
19183;SDS011;9724;51.194;6.856;2022-08-01T04:03:04;26.17;;;11.57;;
19183;SDS011;9724;51.194;6.856;2022-08-01T04:05:32;20.47;;;10.70;;
19183;SDS011;9724;51.194;6.856;2022-08-01T04:08:01;19.17;;;11.13;;
19183;SDS011;9724;51.194;6.856;2022-08-01T04:10:30;18.03;;;9.97;;
19183;SDS011;9724;51.194;6.856;2022-08-01T04:12:58;19.73;;;9.73;;
19183;SDS011;9724;51.194;6.856;2022-08-01T04:15:26;20.57;;;9.67;;
19183;SDS011;9724;51.194;6.856;2022-08-01T04:17:55;17.13;;;10.13;;
19183;SDS011;9724;51.194;6.856;2022-08-01T04:20:22;23.93;;;10.77;;
19183;SDS011;9724;51.194;6.856;2022-08-01T04:22:51;20.93;;;11.73;;
19183;SDS011;9724;51.194;6.856;2022-08-01T04:25:19;18.70;;;11.13;;
19183;SDS011;9724;51.194;6.856;2022-08-01T04:27:51;21.83;;;11.90;;
19183;SDS011;9724;51.194;6.856;2022-08-01T04:30:20;21.60;;;11.30;;
19183;SDS011;9724;51.194;6.856;2022-08-01T04:32:52;19.93;;;12.73;;
19183;SDS011;9724;51.194;6.856;2022-08-01T04:35:20;19.40;;;12.17;;
19183;SDS011;9724;51.194;6.856;2022-08-01T04:38:09;23.47;;;12.77;;
19183;SDS011;9724;51.194;6.856;2022-08-01T04:40:38;21.33;;;12.47;;
19183;SDS011;9724;51.194;6.856;2022-08-01T04:43:08;23.60;;;13.73;;
19183;SDS011;9724;51.194;6.856;2022-08-01T04:45:36;22.33;;;14.10;;
19183;SDS011;9724;51.194;6.856;2022-08-01T04:48:04;25.47;;;15.17;;
19183;SDS011;9724;51.194;6.856;2022-08-01T04:50:34;25.27;;;15.03;;
19183;SDS011;9724;51.194;6.856;2022-08-01T04:53:02;25.37;;;14.60;;
19183;SDS011;9724;51.194;6.856;2022-08-01T04:55:30;24.43;;;14.60;;
19183;SDS011;9724;51.194;6.856;2022-08-01T04:57:58;23.97;;;14.90;;
19183;SDS011;9724;51.194;6.856;2022-08-01T05:00:27;23.30;;;15.53;;
19183;SDS011;9724;51.194;6.856;2022-08-01T05:02:57;31.80;;;15.27;;
19183;SDS011;9724;51.194;6.856;2022-08-01T05:05:24;22.40;;;14.00;;
19183;SDS011;9724;51.194;6.856;2022-08-01T05:07:52;26.00;;;14.70;;
19183;SDS011;9724;51.194;6.856;2022-08-01T05:10:20;32.17;;;15.00;;
19183;SDS011;9724;51.194;6.856;2022-08-01T05:12:47;30.33;;;14.70;;
19183;SDS011;9724;51.194;6.856;2022-08-01T05:15:15;25.53;;;14.30;;
19183;SDS011;9724;51.194;6.856;2022-08-01T05:17:44;11.20;;;6.60;;
19183;SDS011;9724;51.194;6.856;2022-08-01T05:20:12;14.00;;;8.47;;
19183;SDS011;9724;51.194;6.856;2022-08-01T05:22:40;18.70;;;10.13;;
19183;SDS011;9724;51.194;6.856;2022-08-01T05:25:08;17.87;;;10.97;;
19183;SDS011;9724;51.194;6.856;2022-08-01T05:27:38;14.13;;;9.10;;
19183;SDS011;9724;51.194;6.856;2022-08-01T05:30:07;14.60;;;9.93;;
19183;SDS011;9724;51.194;6.856;2022-08-01T05:32:36;17.07;;;9.57;;
19183;SDS011;9724;51.194;6.856;2022-08-01T05:35:06;16.40;;;8.90;;
19183;SDS011;9724;51.194;6.856;2022-08-01T05:37:35;15.33;;;11.13;;
19183;SDS011;9724;51.194;6.856;2022-08-01T05:40:03;15.73;;;9.67;;
19183;SDS011;9724;51.194;6.856;2022-08-01T05:42:32;19.43;;;11.40;;
19183;SDS011;9724;51.194;6.856;2022-08-01T05:44:59;18.97;;;10.33;;
19183;SDS011;9724;51.194;6.856;2022-08-01T05:47:27;14.87;;;11.07;;
19183;SDS011;9724;51.194;6.856;2022-08-01T05:49:55;13.33;;;10.10;;
19183;SDS011;9724;51.194;6.856;2022-08-01T05:52:25;15.33;;;9.20;;
19183;SDS011;9724;51.194;6.856;2022-08-01T05:54:52;15.40;;;10.53;;
19183;SDS011;9724;51.194;6.856;2022-08-01T05:57:20;19.90;;;10.50;;
19183;SDS011;9724;51.194;6.856;2022-08-01T05:59:48;17.43;;;9.33;;
19183;SDS011;9724;51.194;6.856;2022-08-01T06:02:16;17.43;;;10.77;;
19183;SDS011;9724;51.194;6.856;2022-08-01T06:04:44;20.13;;;11.13;;
19183;SDS011;9724;51.194;6.856;2022-08-01T06:07:11;18.93;;;11.20;;
19183;SDS011;9724;51.194;6.856;2022-08-01T06:09:40;19.03;;;11.13;;
19183;SDS011;9724;51.194;6.856;2022-08-01T06:12:08;20.13;;;12.53;;
19183;SDS011;9724;51.194;6.856;2022-08-01T06:14:36;19.50;;;12.03;;
19183;SDS011;9724;51.194;6.856;2022-08-01T06:17:04;22.50;;;11.67;;
19183;SDS011;9724;51.194;6.856;2022-08-01T06:19:31;17.03;;;11.07;;
19183;SDS011;9724;51.194;6.856;2022-08-01T06:21:59;19.30;;;11.40;;
19183;SDS011;9724;51.194;6.856;2022-08-01T06:24:27;30.90;;;12.23;;
19183;SDS011;9724;51.194;6.856;2022-08-01T06:26:56;23.57;;;12.30;;
19183;SDS011;9724;51.194;6.856;2022-08-01T06:29:24;18.13;;;12.43;;
19183;SDS011;9724;51.194;6.856;2022-08-01T06:31:55;20.27;;;12.70;;
19183;SDS011;9724;51.194;6.856;2022-08-01T06:34:22;19.73;;;12.63;;
19183;SDS011;9724;51.194;6.856;2022-08-01T06:36:50;20.20;;;11.97;;
19183;SDS011;9724;51.194;6.856;2022-08-01T06:39:18;20.70;;;13.03;;
19183;SDS011;9724;51.194;6.856;2022-08-01T06:41:46;25.47;;;13.97;;
19183;SDS011;9724;51.194;6.856;2022-08-01T06:44:15;25.30;;;13.77;;
19183;SDS011;9724;51.194;6.856;2022-08-01T06:46:44;20.40;;;10.57;;
19183;SDS011;9724;51.194;6.856;2022-08-01T06:49:12;31.77;;;14.03;;
19183;SDS011;9724;51.194;6.856;2022-08-01T06:51:39;19.57;;;12.67;;
19183;SDS011;9724;51.194;6.856;2022-08-01T06:54:07;20.20;;;12.70;;
19183;SDS011;9724;51.194;6.856;2022-08-01T06:56:35;22.53;;;12.60;;
19183;SDS011;9724;51.194;6.856;2022-08-01T06:59:03;19.20;;;11.90;;
19183;SDS011;9724;51.194;6.856;2022-08-01T07:01:32;18.10;;;12.17;;
19183;SDS011;9724;51.194;6.856;2022-08-01T07:04:00;20.13;;;12.37;;
19183;SDS011;9724;51.194;6.856;2022-08-01T07:06:28;16.17;;;10.13;;
19183;SDS011;9724;51.194;6.856;2022-08-01T07:08:56;17.80;;;11.93;;
19183;SDS011;9724;51.194;6.856;2022-08-01T07:11:31;16.27;;;10.90;;
19183;SDS011;9724;51.194;6.856;2022-08-01T07:13:59;12.70;;;8.63;;
19183;SDS011;9724;51.194;6.856;2022-08-01T07:16:27;13.47;;;8.70;;
19183;SDS011;9724;51.194;6.856;2022-08-01T07:18:56;9.63;;;6.57;;
19183;SDS011;9724;51.194;6.856;2022-08-01T07:21:24;17.90;;;8.27;;
19183;SDS011;9724;51.194;6.856;2022-08-01T07:24:06;8.97;;;6.63;;
19183;SDS011;9724;51.194;6.856;2022-08-01T07:26:39;8.70;;;6.10;;
19183;SDS011;9724;51.194;6.856;2022-08-01T07:29:19;13.67;;;6.47;;
19183;SDS011;9724;51.194;6.856;2022-08-01T07:31:48;10.37;;;5.67;;
19183;SDS011;9724;51.194;6.856;2022-08-01T07:34:17;13.50;;;6.43;;
19183;SDS011;9724;51.194;6.856;2022-08-01T07:36:45;10.80;;;5.20;;
19183;SDS011;9724;51.194;6.856;2022-08-01T07:39:12;6.30;;;5.20;;
19183;SDS011;9724;51.194;6.856;2022-08-01T07:41:40;7.97;;;4.50;;
19183;SDS011;9724;51.194;6.856;2022-08-01T07:44:28;5.67;;;4.50;;
19183;SDS011;9724;51.194;6.856;2022-08-01T07:46:56;5.13;;;4.63;;
19183;SDS011;9724;51.194;6.856;2022-08-01T07:49:25;4.60;;;3.77;;
19183;SDS011;9724;51.194;6.856;2022-08-01T07:51:52;4.90;;;4.33;;
19183;SDS011;9724;51.194;6.856;2022-08-01T07:54:29;6.07;;;5.03;;
19183;SDS011;9724;51.194;6.856;2022-08-01T07:56:59;33.17;;;6.93;;
19183;SDS011;9724;51.194;6.856;2022-08-01T07:59:26;12.40;;;5.50;;
19183;SDS011;9724;51.194;6.856;2022-08-01T08:01:54;8.63;;;4.47;;
19183;SDS011;9724;51.194;6.856;2022-08-01T08:04:22;6.93;;;4.60;;
19183;SDS011;9724;51.194;6.856;2022-08-01T08:06:51;7.37;;;5.23;;
19183;SDS011;9724;51.194;6.856;2022-08-01T08:09:19;7.67;;;5.90;;
19183;SDS011;9724;51.194;6.856;2022-08-01T08:11:47;7.10;;;5.40;;
19183;SDS011;9724;51.194;6.856;2022-08-01T08:14:15;8.30;;;4.10;;
19183;SDS011;9724;51.194;6.856;2022-08-01T08:16:44;6.47;;;4.60;;
19183;SDS011;9724;51.194;6.856;2022-08-01T08:19:12;4.67;;;4.03;;
19183;SDS011;9724;51.194;6.856;2022-08-01T08:21:40;8.67;;;5.67;;
19183;SDS011;9724;51.194;6.856;2022-08-01T08:24:09;13.73;;;6.27;;
19183;SDS011;9724;51.194;6.856;2022-08-01T08:26:53;8.70;;;6.10;;
19183;SDS011;9724;51.194;6.856;2022-08-01T08:29:23;11.70;;;6.47;;
19183;SDS011;9724;51.194;6.856;2022-08-01T08:31:51;9.60;;;5.53;;
19183;SDS011;9724;51.194;6.856;2022-08-01T08:34:20;7.97;;;5.80;;
19183;SDS011;9724;51.194;6.856;2022-08-01T08:36:48;6.90;;;5.50;;
19183;SDS011;9724;51.194;6.856;2022-08-01T08:39:17;6.63;;;4.60;;
19183;SDS011;9724;51.194;6.856;2022-08-01T08:41:46;8.10;;;4.40;;
19183;SDS011;9724;51.194;6.856;2022-08-01T08:44:16;6.43;;;4.67;;
19183;SDS011;9724;51.194;6.856;2022-08-01T08:46:45;7.83;;;5.17;;
19183;SDS011;9724;51.194;6.856;2022-08-01T08:49:15;4.90;;;4.47;;
19183;SDS011;9724;51.194;6.856;2022-08-01T08:51:44;5.97;;;5.10;;
19183;SDS011;9724;51.194;6.856;2022-08-01T08:54:15;6.93;;;4.90;;
19183;SDS011;9724;51.194;6.856;2022-08-01T08:56:44;6.37;;;4.27;;
19183;SDS011;9724;51.194;6.856;2022-08-01T08:59:13;8.17;;;3.90;;
19183;SDS011;9724;51.194;6.856;2022-08-01T09:01:41;4.83;;;3.40;;
19183;SDS011;9724;51.194;6.856;2022-08-01T09:04:09;3.77;;;3.47;;
19183;SDS011;9724;51.194;6.856;2022-08-01T09:06:38;4.50;;;3.53;;
19183;SDS011;9724;51.194;6.856;2022-08-01T09:09:07;3.47;;;3.10;;
19183;SDS011;9724;51.194;6.856;2022-08-01T09:11:35;4.50;;;3.50;;
19183;SDS011;9724;51.194;6.856;2022-08-01T09:14:06;5.27;;;3.50;;
19183;SDS011;9724;51.194;6.856;2022-08-01T09:16:37;6.47;;;3.50;;
19183;SDS011;9724;51.194;6.856;2022-08-01T09:19:14;4.07;;;3.55;;
19183;SDS011;9724;51.194;6.856;2022-08-01T09:22:03;4.82;;;2.80;;
19183;SDS011;9724;51.194;6.856;2022-08-01T09:24:32;3.88;;;2.75;;
19183;SDS011;9724;51.194;6.856;2022-08-01T09:27:02;13.02;;;2.90;;
19183;SDS011;9724;51.194;6.856;2022-08-01T09:29:47;4.47;;;2.88;;
19183;SDS011;9724;51.194;6.856;2022-08-01T09:32:27;3.08;;;2.83;;
19183;SDS011;9724;51.194;6.856;2022-08-01T09:38:11;2.85;;;2.63;;
19183;SDS011;9724;51.194;6.856;2022-08-01T09:40:46;6.80;;;3.22;;
19183;SDS011;9724;51.194;6.856;2022-08-01T09:43:15;3.13;;;2.60;;
19183;SDS011;9724;51.194;6.856;2022-08-01T09:45:45;4.47;;;2.65;;
19183;SDS011;9724;51.194;6.856;2022-08-01T09:48:18;4.78;;;2.33;;
19183;SDS011;9724;51.194;6.856;2022-08-01T09:50:54;2.88;;;2.78;;
19183;SDS011;9724;51.194;6.856;2022-08-01T09:53:40;5.55;;;2.70;;
19183;SDS011;9724;51.194;6.856;2022-08-01T09:56:18;2.72;;;2.50;;
19183;SDS011;9724;51.194;6.856;2022-08-01T09:58:54;2.85;;;2.60;;
19183;SDS011;9724;51.194;6.856;2022-08-01T10:01:28;3.03;;;2.83;;
19183;SDS011;9724;51.194;6.856;2022-08-01T10:04:10;6.15;;;2.80;;
19183;SDS011;9724;51.194;6.856;2022-08-01T10:06:41;3.60;;;3.30;;
19183;SDS011;9724;51.194;6.856;2022-08-01T10:09:11;4.03;;;3.63;;
19183;SDS011;9724;51.194;6.856;2022-08-01T10:11:40;3.20;;;2.83;;
19183;SDS011;9724;51.194;6.856;2022-08-01T10:14:10;2.65;;;2.55;;
19183;SDS011;9724;51.194;6.856;2022-08-01T10:16:45;2.65;;;2.45;;
19183;SDS011;9724;51.194;6.856;2022-08-01T10:19:22;3.17;;;2.88;;
19183;SDS011;9724;51.194;6.856;2022-08-01T10:21:55;4.10;;;3.07;;
19183;SDS011;9724;51.194;6.856;2022-08-01T10:24:26;3.83;;;3.00;;
19183;SDS011;9724;51.194;6.856;2022-08-01T10:26:56;2.92;;;2.72;;
19183;SDS011;9724;51.194;6.856;2022-08-01T10:29:35;5.47;;;3.07;;
19183;SDS011;9724;51.194;6.856;2022-08-01T10:32:13;2.80;;;2.60;;
19183;SDS011;9724;51.194;6.856;2022-08-01T10:34:41;3.10;;;2.60;;
19183;SDS011;9724;51.194;6.856;2022-08-01T10:37:10;3.73;;;2.63;;
19183;SDS011;9724;51.194;6.856;2022-08-01T10:39:41;2.50;;;2.30;;
19183;SDS011;9724;51.194;6.856;2022-08-01T10:42:09;2.60;;;2.40;;
19183;SDS011;9724;51.194;6.856;2022-08-01T10:44:41;2.63;;;2.43;;
19183;SDS011;9724;51.194;6.856;2022-08-01T10:47:17;2.42;;;2.33;;
19183;SDS011;9724;51.194;6.856;2022-08-01T10:50:11;2.13;;;1.90;;
19183;SDS011;9724;51.194;6.856;2022-08-01T10:53:04;1.90;;;1.90;;
19183;SDS011;9724;51.194;6.856;2022-08-01T10:55:49;1.93;;;1.83;;
19183;SDS011;9724;51.194;6.856;2022-08-01T10:58:21;3.07;;;1.97;;
19183;SDS011;9724;51.194;6.856;2022-08-01T11:03:57;3.40;;;2.20;;
19183;SDS011;9724;51.194;6.856;2022-08-01T11:09:38;1.80;;;1.67;;
19183;SDS011;9724;51.194;6.856;2022-08-01T11:12:12;1.80;;;1.70;;
19183;SDS011;9724;51.194;6.856;2022-08-01T11:18:01;2.45;;;2.00;;
19183;SDS011;9724;51.194;6.856;2022-08-01T11:20:32;2.07;;;1.93;;
19183;SDS011;9724;51.194;6.856;2022-08-01T11:23:18;3.58;;;1.70;;
19183;SDS011;9724;51.194;6.856;2022-08-01T11:28:38;1.23;;;1.23;;
19183;SDS011;9724;51.194;6.856;2022-08-01T11:31:26;2.27;;;1.80;;
19183;SDS011;9724;51.194;6.856;2022-08-01T11:34:02;1.43;;;1.43;;
19183;SDS011;9724;51.194;6.856;2022-08-01T11:36:31;1.50;;;1.42;;
19183;SDS011;9724;51.194;6.856;2022-08-01T11:39:19;1.50;;;1.50;;
19183;SDS011;9724;51.194;6.856;2022-08-01T11:41:47;2.93;;;1.63;;
19183;SDS011;9724;51.194;6.856;2022-08-01T11:44:17;3.03;;;1.70;;
19183;SDS011;9724;51.194;6.856;2022-08-01T11:47:00;1.73;;;1.63;;
19183;SDS011;9724;51.194;6.856;2022-08-01T11:49:45;1.43;;;1.33;;
19183;SDS011;9724;51.194;6.856;2022-08-01T11:52:17;1.40;;;1.27;;
19183;SDS011;9724;51.194;6.856;2022-08-01T11:54:48;1.10;;;1.10;;
19183;SDS011;9724;51.194;6.856;2022-08-01T11:57:18;1.10;;;1.10;;
19183;SDS011;9724;51.194;6.856;2022-08-01T11:59:49;2.42;;;1.20;;
19183;SDS011;9724;51.194;6.856;2022-08-01T12:02:29;1.90;;;1.13;;
19183;SDS011;9724;51.194;6.856;2022-08-01T12:04:58;1.13;;;1.13;;
19183;SDS011;9724;51.194;6.856;2022-08-01T12:07:32;1.38;;;1.33;;
19183;SDS011;9724;51.194;6.856;2022-08-01T12:10:01;1.27;;;1.20;;
19183;SDS011;9724;51.194;6.856;2022-08-01T12:12:31;1.55;;;1.45;;
19183;SDS011;9724;51.194;6.856;2022-08-01T12:15:00;4.45;;;1.40;;
19183;SDS011;9724;51.194;6.856;2022-08-01T12:17:31;1.40;;;1.30;;
19183;SDS011;9724;51.194;6.856;2022-08-01T12:20:01;2.47;;;1.77;;
19183;SDS011;9724;51.194;6.856;2022-08-01T12:22:29;2.47;;;1.43;;
19183;SDS011;9724;51.194;6.856;2022-08-01T12:25:05;2.87;;;1.70;;
19183;SDS011;9724;51.194;6.856;2022-08-01T12:27:34;3.37;;;2.30;;
19183;SDS011;9724;51.194;6.856;2022-08-01T12:30:04;1.57;;;1.47;;
19183;SDS011;9724;51.194;6.856;2022-08-01T12:32:34;10.40;;;2.40;;
19183;SDS011;9724;51.194;6.856;2022-08-01T12:35:03;1.73;;;1.63;;
19183;SDS011;9724;51.194;6.856;2022-08-01T12:37:34;2.93;;;1.50;;
19183;SDS011;9724;51.194;6.856;2022-08-01T12:40:10;1.93;;;1.67;;
19183;SDS011;9724;51.194;6.856;2022-08-01T12:42:40;1.50;;;1.40;;
19183;SDS011;9724;51.194;6.856;2022-08-01T12:45:09;1.10;;;1.10;;
19183;SDS011;9724;51.194;6.856;2022-08-01T12:47:38;1.20;;;1.20;;
19183;SDS011;9724;51.194;6.856;2022-08-01T12:50:07;1.20;;;1.20;;
19183;SDS011;9724;51.194;6.856;2022-08-01T12:52:39;1.20;;;1.20;;
19183;SDS011;9724;51.194;6.856;2022-08-01T12:55:12;1.55;;;1.30;;
19183;SDS011;9724;51.194;6.856;2022-08-01T12:57:41;1.33;;;1.25;;
19183;SDS011;9724;51.194;6.856;2022-08-01T13:00:12;1.20;;;1.20;;
19183;SDS011;9724;51.194;6.856;2022-08-01T13:02:45;1.10;;;1.10;;
19183;SDS011;9724;51.194;6.856;2022-08-01T13:05:14;1.50;;;1.40;;
19183;SDS011;9724;51.194;6.856;2022-08-01T13:07:44;1.20;;;1.20;;
19183;SDS011;9724;51.194;6.856;2022-08-01T13:10:23;1.30;;;1.30;;
19183;SDS011;9724;51.194;6.856;2022-08-01T13:12:53;2.53;;;1.30;;
19183;SDS011;9724;51.194;6.856;2022-08-01T13:15:23;1.40;;;1.20;;
19183;SDS011;9724;51.194;6.856;2022-08-01T13:17:53;1.17;;;1.17;;
19183;SDS011;9724;51.194;6.856;2022-08-01T13:20:22;2.60;;;1.30;;
19183;SDS011;9724;51.194;6.856;2022-08-01T13:22:54;1.90;;;1.40;;
19183;SDS011;9724;51.194;6.856;2022-08-01T13:25:23;2.40;;;1.47;;
19183;SDS011;9724;51.194;6.856;2022-08-01T13:30:50;1.40;;;1.40;;
19183;SDS011;9724;51.194;6.856;2022-08-01T13:33:18;4.97;;;1.83;;
19183;SDS011;9724;51.194;6.856;2022-08-01T13:35:46;1.67;;;1.60;;
19183;SDS011;9724;51.194;6.856;2022-08-01T13:38:14;2.10;;;1.73;;
19183;SDS011;9724;51.194;6.856;2022-08-01T13:40:43;1.90;;;1.57;;
19183;SDS011;9724;51.194;6.856;2022-08-01T13:43:11;1.20;;;1.20;;
19183;SDS011;9724;51.194;6.856;2022-08-01T13:45:39;1.73;;;1.40;;
19183;SDS011;9724;51.194;6.856;2022-08-01T13:48:10;2.83;;;1.37;;
19183;SDS011;9724;51.194;6.856;2022-08-01T13:50:44;1.30;;;1.30;;
19183;SDS011;9724;51.194;6.856;2022-08-01T13:53:32;1.47;;;1.37;;
19183;SDS011;9724;51.194;6.856;2022-08-01T13:56:01;1.50;;;1.50;;
19183;SDS011;9724;51.194;6.856;2022-08-01T13:58:29;1.27;;;1.27;;
19183;SDS011;9724;51.194;6.856;2022-08-01T14:00:57;1.87;;;1.33;;
19183;SDS011;9724;51.194;6.856;2022-08-01T14:03:24;1.57;;;1.47;;
19183;SDS011;9724;51.194;6.856;2022-08-01T14:05:59;1.30;;;1.30;;
19183;SDS011;9724;51.194;6.856;2022-08-01T14:08:26;1.67;;;1.57;;
19183;SDS011;9724;51.194;6.856;2022-08-01T14:10:56;2.73;;;1.70;;
19183;SDS011;9724;51.194;6.856;2022-08-01T14:13:26;2.67;;;1.47;;
19183;SDS011;9724;51.194;6.856;2022-08-01T14:16:02;2.83;;;1.53;;
19183;SDS011;9724;51.194;6.856;2022-08-01T14:18:30;1.87;;;1.73;;
19183;SDS011;9724;51.194;6.856;2022-08-01T14:20:58;1.80;;;1.70;;
19183;SDS011;9724;51.194;6.856;2022-08-01T14:23:31;3.73;;;1.70;;
19183;SDS011;9724;51.194;6.856;2022-08-01T14:25:58;1.77;;;1.60;;
19183;SDS011;9724;51.194;6.856;2022-08-01T14:28:38;1.60;;;1.50;;
19183;SDS011;9724;51.194;6.856;2022-08-01T14:31:06;3.43;;;1.63;;
19183;SDS011;9724;51.194;6.856;2022-08-01T14:33:34;2.13;;;1.60;;
19183;SDS011;9724;51.194;6.856;2022-08-01T14:36:02;1.80;;;1.70;;
19183;SDS011;9724;51.194;6.856;2022-08-01T14:38:50;3.03;;;1.73;;
19183;SDS011;9724;51.194;6.856;2022-08-01T14:41:18;4.00;;;1.70;;
19183;SDS011;9724;51.194;6.856;2022-08-01T14:43:47;2.07;;;1.93;;
19183;SDS011;9724;51.194;6.856;2022-08-01T14:46:15;5.17;;;1.80;;
19183;SDS011;9724;51.194;6.856;2022-08-01T14:48:43;2.10;;;1.70;;
19183;SDS011;9724;51.194;6.856;2022-08-01T14:51:11;2.57;;;1.80;;
19183;SDS011;9724;51.194;6.856;2022-08-01T14:53:38;4.93;;;1.90;;
19183;SDS011;9724;51.194;6.856;2022-08-01T14:56:15;1.40;;;1.40;;
19183;SDS011;9724;51.194;6.856;2022-08-01T14:58:43;1.97;;;1.77;;
19183;SDS011;9724;51.194;6.856;2022-08-01T15:01:15;1.90;;;1.80;;
19183;SDS011;9724;51.194;6.856;2022-08-01T15:03:44;4.03;;;1.90;;
19183;SDS011;9724;51.194;6.856;2022-08-01T15:06:14;5.30;;;1.87;;
19183;SDS011;9724;51.194;6.856;2022-08-01T15:08:41;1.90;;;1.80;;
19183;SDS011;9724;51.194;6.856;2022-08-01T15:11:10;3.80;;;2.17;;
19183;SDS011;9724;51.194;6.856;2022-08-01T15:13:38;1.90;;;1.80;;
19183;SDS011;9724;51.194;6.856;2022-08-01T15:16:08;7.10;;;2.20;;
19183;SDS011;9724;51.194;6.856;2022-08-01T15:18:38;1.83;;;1.83;;
19183;SDS011;9724;51.194;6.856;2022-08-01T15:21:08;4.53;;;1.83;;
19183;SDS011;9724;51.194;6.856;2022-08-01T15:23:45;3.40;;;2.27;;
19183;SDS011;9724;51.194;6.856;2022-08-01T15:26:13;5.03;;;2.40;;
19183;SDS011;9724;51.194;6.856;2022-08-01T15:28:41;4.17;;;2.53;;
19183;SDS011;9724;51.194;6.856;2022-08-01T15:31:10;3.17;;;2.40;;
19183;SDS011;9724;51.194;6.856;2022-08-01T15:33:41;2.40;;;2.30;;
19183;SDS011;9724;51.194;6.856;2022-08-01T15:36:08;2.47;;;2.37;;
19183;SDS011;9724;51.194;6.856;2022-08-01T15:38:40;2.50;;;2.40;;